sensor_id;sensor_type;location;lat;lon;timestamp;P1;durP1;ratioP1;P2;durP2;ratioP2
21412;SDS011;10867;45.084;5.732;2023-05-10T00:01:48;7.80;;;3.23;;
21412;SDS011;10867;45.084;5.732;2023-05-10T00:04:17;9.98;;;2.83;;
21412;SDS011;10867;45.084;5.732;2023-05-10T00:06:51;3.58;;;1.73;;
21412;SDS011;10867;45.084;5.732;2023-05-10T00:09:20;2.75;;;1.50;;
21412;SDS011;10867;45.084;5.732;2023-05-10T00:12:10;1.92;;;1.13;;
21412;SDS011;10867;45.084;5.732;2023-05-10T00:14:49;2.50;;;1.70;;
21412;SDS011;10867;45.084;5.732;2023-05-10T00:17:43;1.75;;;1.40;;
21412;SDS011;10867;45.084;5.732;2023-05-10T00:20:10;4.55;;;1.90;;
21412;SDS011;10867;45.084;5.732;2023-05-10T00:22:36;2.90;;;1.80;;
21412;SDS011;10867;45.084;5.732;2023-05-10T00:25:29;3.10;;;1.10;;
21412;SDS011;10867;45.084;5.732;2023-05-10T00:28:33;2.20;;;0.90;;
21412;SDS011;10867;45.084;5.732;2023-05-10T00:30:59;3.05;;;1.30;;
21412;SDS011;10867;45.084;5.732;2023-05-10T00:33:28;2.90;;;1.50;;
21412;SDS011;10867;45.084;5.732;2023-05-10T00:35:59;1.75;;;1.40;;
21412;SDS011;10867;45.084;5.732;2023-05-10T00:38:27;3.67;;;1.92;;
21412;SDS011;10867;45.084;5.732;2023-05-10T00:40:59;3.67;;;1.60;;
21412;SDS011;10867;45.084;5.732;2023-05-10T00:43:45;6.68;;;2.20;;
21412;SDS011;10867;45.084;5.732;2023-05-10T00:46:53;3.95;;;2.80;;
21412;SDS011;10867;45.084;5.732;2023-05-10T00:49:40;9.07;;;4.50;;
21412;SDS011;10867;45.084;5.732;2023-05-10T00:52:36;6.17;;;4.13;;
21412;SDS011;10867;45.084;5.732;2023-05-10T00:55:21;6.20;;;3.40;;
21412;SDS011;10867;45.084;5.732;2023-05-10T00:58:03;5.78;;;3.85;;
21412;SDS011;10867;45.084;5.732;2023-05-10T01:01:10;5.20;;;3.15;;
21412;SDS011;10867;45.084;5.732;2023-05-10T01:04:16;7.50;;;2.60;;
21412;SDS011;10867;45.084;5.732;2023-05-10T01:06:57;4.97;;;2.35;;
21412;SDS011;10867;45.084;5.732;2023-05-10T01:09:27;4.63;;;2.65;;
21412;SDS011;10867;45.084;5.732;2023-05-10T01:11:53;3.33;;;2.10;;
21412;SDS011;10867;45.084;5.732;2023-05-10T01:14:25;4.47;;;1.92;;
21412;SDS011;10867;45.084;5.732;2023-05-10T01:16:59;2.10;;;1.80;;
21412;SDS011;10867;45.084;5.732;2023-05-10T01:19:28;3.47;;;1.45;;
21412;SDS011;10867;45.084;5.732;2023-05-10T01:32:42;3.28;;;1.27;;
21412;SDS011;10867;45.084;5.732;2023-05-10T01:35:17;3.67;;;1.00;;
21412;SDS011;10867;45.084;5.732;2023-05-10T01:40:37;2.00;;;1.10;;
21412;SDS011;10867;45.084;5.732;2023-05-10T01:43:10;2.83;;;1.23;;
21412;SDS011;10867;45.084;5.732;2023-05-10T01:46:00;4.10;;;1.00;;
21412;SDS011;10867;45.084;5.732;2023-05-10T01:52:25;3.03;;;1.20;;
21412;SDS011;10867;45.084;5.732;2023-05-10T01:55:27;2.25;;;1.40;;
21412;SDS011;10867;45.084;5.732;2023-05-10T01:58:08;2.75;;;1.45;;
21412;SDS011;10867;45.084;5.732;2023-05-10T02:01:12;4.25;;;1.40;;
21412;SDS011;10867;45.084;5.732;2023-05-10T02:04:08;3.60;;;1.50;;
21412;SDS011;10867;45.084;5.732;2023-05-10T02:10:19;3.30;;;2.05;;
21412;SDS011;10867;45.084;5.732;2023-05-10T02:13:29;5.25;;;1.92;;
21412;SDS011;10867;45.084;5.732;2023-05-10T02:16:07;5.20;;;1.60;;
21412;SDS011;10867;45.084;5.732;2023-05-10T02:18:59;3.43;;;1.63;;
21412;SDS011;10867;45.084;5.732;2023-05-10T02:28:13;4.55;;;1.50;;
21412;SDS011;10867;45.084;5.732;2023-05-10T02:37:22;3.60;;;2.00;;
21412;SDS011;10867;45.084;5.732;2023-05-10T02:40:16;3.33;;;1.90;;
21412;SDS011;10867;45.084;5.732;2023-05-10T02:42:56;6.07;;;4.10;;
21412;SDS011;10867;45.084;5.732;2023-05-10T02:45:33;6.45;;;4.07;;
21412;SDS011;10867;45.084;5.732;2023-05-10T03:34:56;4.80;;;2.20;;
21412;SDS011;10867;45.084;5.732;2023-05-10T03:37:34;4.97;;;1.30;;
21412;SDS011;10867;45.084;5.732;2023-05-10T03:40:19;3.53;;;1.30;;
21412;SDS011;10867;45.084;5.732;2023-05-10T03:42:47;3.93;;;1.20;;
21412;SDS011;10867;45.084;5.732;2023-05-10T03:45:24;4.00;;;1.13;;
21412;SDS011;10867;45.084;5.732;2023-05-10T03:47:56;3.40;;;1.25;;
21412;SDS011;10867;45.084;5.732;2023-05-10T03:50:46;1.70;;;1.10;;
21412;SDS011;10867;45.084;5.732;2023-05-10T03:53:14;4.72;;;1.23;;
21412;SDS011;10867;45.084;5.732;2023-05-10T03:55:48;2.17;;;1.10;;
21412;SDS011;10867;45.084;5.732;2023-05-10T04:02:05;5.28;;;1.10;;
21412;SDS011;10867;45.084;5.732;2023-05-10T04:22:03;2.90;;;1.03;;
21412;SDS011;10867;45.084;5.732;2023-05-10T04:31:44;2.78;;;1.00;;
21412;SDS011;10867;45.084;5.732;2023-05-10T04:37:53;4.10;;;1.13;;
21412;SDS011;10867;45.084;5.732;2023-05-10T04:48:20;3.30;;;1.30;;
21412;SDS011;10867;45.084;5.732;2023-05-10T04:50:48;2.65;;;1.10;;
21412;SDS011;10867;45.084;5.732;2023-05-10T04:53:19;2.35;;;1.23;;
21412;SDS011;10867;45.084;5.732;2023-05-10T04:55:45;2.65;;;1.00;;
21412;SDS011;10867;45.084;5.732;2023-05-10T04:58:34;3.33;;;1.30;;
21412;SDS011;10867;45.084;5.732;2023-05-10T05:01:08;3.20;;;1.23;;
21412;SDS011;10867;45.084;5.732;2023-05-10T05:03:55;2.50;;;1.25;;
21412;SDS011;10867;45.084;5.732;2023-05-10T05:06:24;2.63;;;1.20;;
21412;SDS011;10867;45.084;5.732;2023-05-10T05:08:56;3.08;;;1.38;;
21412;SDS011;10867;45.084;5.732;2023-05-10T05:11:32;5.07;;;1.20;;
21412;SDS011;10867;45.084;5.732;2023-05-10T05:14:08;2.53;;;1.30;;
21412;SDS011;10867;45.084;5.732;2023-05-10T05:16:41;4.85;;;1.27;;
21412;SDS011;10867;45.084;5.732;2023-05-10T05:19:18;4.97;;;1.40;;
21412;SDS011;10867;45.084;5.732;2023-05-10T05:21:52;2.72;;;1.15;;
21412;SDS011;10867;45.084;5.732;2023-05-10T05:27:21;4.45;;;1.45;;
21412;SDS011;10867;45.084;5.732;2023-05-10T05:29:53;3.90;;;1.20;;
21412;SDS011;10867;45.084;5.732;2023-05-10T05:32:21;3.70;;;1.40;;
21412;SDS011;10867;45.084;5.732;2023-05-10T05:35:01;3.85;;;1.38;;
21412;SDS011;10867;45.084;5.732;2023-05-10T05:37:40;4.60;;;1.30;;
21412;SDS011;10867;45.084;5.732;2023-05-10T05:44:00;3.85;;;1.35;;
21412;SDS011;10867;45.084;5.732;2023-05-10T05:46:07;3.30;;;1.40;;
21412;SDS011;10867;45.084;5.732;2023-05-10T05:48:36;2.88;;;1.10;;
21412;SDS011;10867;45.084;5.732;2023-05-10T05:51:05;4.22;;;1.45;;
21412;SDS011;10867;45.084;5.732;2023-05-10T05:53:41;2.97;;;1.30;;
21412;SDS011;10867;45.084;5.732;2023-05-10T05:56:17;4.68;;;1.27;;
21412;SDS011;10867;45.084;5.732;2023-05-10T05:58:55;2.90;;;1.00;;
21412;SDS011;10867;45.084;5.732;2023-05-10T06:41:33;5.43;;;1.70;;
21412;SDS011;10867;45.084;5.732;2023-05-10T06:43:59;4.97;;;1.67;;
21412;SDS011;10867;45.084;5.732;2023-05-10T06:46:28;7.93;;;1.75;;
21412;SDS011;10867;45.084;5.732;2023-05-10T08:50:40;5.32;;;1.67;;
21412;SDS011;10867;45.084;5.732;2023-05-10T09:52:20;5.60;;;1.80;;
21412;SDS011;10867;45.084;5.732;2023-05-10T09:54:57;4.32;;;1.70;;
21412;SDS011;10867;45.084;5.732;2023-05-10T10:34:50;5.17;;;1.70;;
21412;SDS011;10867;45.084;5.732;2023-05-10T12:04:33;4.72;;;1.40;;
21412;SDS011;10867;45.084;5.732;2023-05-10T12:10:30;6.13;;;1.50;;
21412;SDS011;10867;45.084;5.732;2023-05-10T12:13:02;4.53;;;1.23;;
21412;SDS011;10867;45.084;5.732;2023-05-10T12:40:06;3.92;;;1.20;;
21412;SDS011;10867;45.084;5.732;2023-05-10T12:42:53;4.50;;;1.20;;
21412;SDS011;10867;45.084;5.732;2023-05-10T12:45:35;4.43;;;1.33;;
21412;SDS011;10867;45.084;5.732;2023-05-10T12:58:00;3.72;;;1.33;;
21412;SDS011;10867;45.084;5.732;2023-05-10T13:00:47;3.33;;;1.30;;
21412;SDS011;10867;45.084;5.732;2023-05-10T13:03:13;5.03;;;1.23;;
21412;SDS011;10867;45.084;5.732;2023-05-10T13:05:40;3.65;;;1.30;;
21412;SDS011;10867;45.084;5.732;2023-05-10T13:11:37;3.75;;;1.23;;
21412;SDS011;10867;45.084;5.732;2023-05-10T13:15:18;3.83;;;1.40;;
21412;SDS011;10867;45.084;5.732;2023-05-10T13:17:37;4.00;;;1.40;;
21412;SDS011;10867;45.084;5.732;2023-05-10T13:23:52;4.13;;;1.37;;
21412;SDS011;10867;45.084;5.732;2023-05-10T13:33:41;4.63;;;1.33;;
21412;SDS011;10867;45.084;5.732;2023-05-10T13:36:13;2.55;;;1.17;;
21412;SDS011;10867;45.084;5.732;2023-05-10T13:45:36;3.90;;;1.25;;
21412;SDS011;10867;45.084;5.732;2023-05-10T13:48:29;2.95;;;1.15;;
21412;SDS011;10867;45.084;5.732;2023-05-10T13:54:44;3.10;;;1.10;;
21412;SDS011;10867;45.084;5.732;2023-05-10T16:00:57;3.83;;;1.40;;
21412;SDS011;10867;45.084;5.732;2023-05-10T17:16:08;3.88;;;1.30;;
21412;SDS011;10867;45.084;5.732;2023-05-10T17:21:52;3.93;;;1.47;;
21412;SDS011;10867;45.084;5.732;2023-05-10T17:24:18;3.17;;;1.20;;
21412;SDS011;10867;45.084;5.732;2023-05-10T17:27:02;3.33;;;1.23;;
21412;SDS011;10867;45.084;5.732;2023-05-10T17:29:48;3.97;;;1.35;;
21412;SDS011;10867;45.084;5.732;2023-05-10T17:39:19;6.90;;;1.58;;
21412;SDS011;10867;45.084;5.732;2023-05-10T17:42:07;4.03;;;1.40;;
21412;SDS011;10867;45.084;5.732;2023-05-10T17:48:16;4.53;;;1.40;;
21412;SDS011;10867;45.084;5.732;2023-05-10T17:50:52;5.63;;;1.40;;
21412;SDS011;10867;45.084;5.732;2023-05-10T17:53:18;4.22;;;1.58;;
21412;SDS011;10867;45.084;5.732;2023-05-10T17:55:53;4.72;;;1.63;;
21412;SDS011;10867;45.084;5.732;2023-05-10T17:58:23;3.60;;;1.50;;
21412;SDS011;10867;45.084;5.732;2023-05-10T18:01:05;4.90;;;1.65;;
21412;SDS011;10867;45.084;5.732;2023-05-10T18:03:32;4.45;;;1.30;;
21412;SDS011;10867;45.084;5.732;2023-05-10T18:06:27;4.88;;;1.63;;
21412;SDS011;10867;45.084;5.732;2023-05-10T18:09:24;5.85;;;1.60;;
21412;SDS011;10867;45.084;5.732;2023-05-10T18:12:02;6.15;;;1.58;;
21412;SDS011;10867;45.084;5.732;2023-05-10T18:17:44;4.97;;;1.47;;
21412;SDS011;10867;45.084;5.732;2023-05-10T18:30:10;4.22;;;1.60;;
21412;SDS011;10867;45.084;5.732;2023-05-10T18:33:20;4.47;;;1.70;;
21412;SDS011;10867;45.084;5.732;2023-05-10T18:36:03;4.88;;;1.67;;
21412;SDS011;10867;45.084;5.732;2023-05-10T18:38:32;5.47;;;1.88;;
21412;SDS011;10867;45.084;5.732;2023-05-10T18:41:41;5.00;;;1.43;;
21412;SDS011;10867;45.084;5.732;2023-05-10T18:44:20;3.78;;;1.40;;
21412;SDS011;10867;45.084;5.732;2023-05-10T18:47:00;6.65;;;1.60;;
21412;SDS011;10867;45.084;5.732;2023-05-10T19:02:52;6.50;;;1.67;;
21412;SDS011;10867;45.084;5.732;2023-05-10T19:05:59;5.22;;;1.50;;
21412;SDS011;10867;45.084;5.732;2023-05-10T19:08:47;5.23;;;1.50;;
21412;SDS011;10867;45.084;5.732;2023-05-10T19:15:02;4.43;;;1.70;;
21412;SDS011;10867;45.084;5.732;2023-05-10T19:21:21;3.78;;;1.80;;
21412;SDS011;10867;45.084;5.732;2023-05-10T20:26:14;4.43;;;2.70;;
